Time;durP1;ratioP1;P1;durP2;ratioP2;P2;SDS_P1;SDS_P2;PMS_P1;PMS_P2;Temp;Humidity;BMP_temperature;BMP_pressure;BME280_temperature;BME280_humidity;BME280_pressure;Samples;Min_cycle;Max_cycle;Signal;HPM_P1;HPM_P2
2022/03/24 00:01:27;;;;;;;196.83;88.90;;;;;;;0.85;57.03;99880.22;2112829;83;21365;-81
2022/03/24 00:04:27;;;;;;;193.87;89.93;;;;;;;0.85;57.07;99881.89;2120721;84;21282;-81
2022/03/24 00:07:28;;;;;;;238.20;92.40;;;;;;;0.78;57.26;99887.41;2111862;83;20943;-81
2022/03/24 00:10:30;;;;;;;173.63;78.97;;;;;;;0.77;57.48;99882.67;2111514;83;20947;-80
2022/03/24 00:13:30;;;;;;;418.20;105.10;;;;;;;0.76;57.55;99882.56;2119609;84;21404;-82
2022/03/24 00:16:31;;;;;;;187.87;80.07;;;;;;;0.71;57.68;99897.68;2113012;83;20985;-81
2022/03/24 00:19:31;;;;;;;185.70;83.53;;;;;;;0.69;57.87;99883.84;2112663;84;21460;-82
2022/03/24 00:22:32;;;;;;;193.97;85.10;;;;;;;0.66;57.95;99882.34;2125505;84;21389;-82
2022/03/24 00:25:33;;;;;;;218.20;85.27;;;;;;;0.64;58.00;99882.64;2110870;84;21022;-83
2022/03/24 00:28:34;;;;;;;183.70;81.93;;;;;;;0.66;57.87;99881.45;2103002;83;20971;-81
2022/03/24 00:31:34;;;;;;;269.83;85.13;;;;;;;0.66;57.97;99885.31;2092691;84;20955;-82
2022/03/24 00:34:35;;;;;;;207.90;81.07;;;;;;;0.66;57.99;99877.60;2094115;85;20998;-81
2022/03/24 00:37:36;;;;;;;240.63;82.83;;;;;;;0.62;57.96;99879.08;2094040;84;20939;-82
2022/03/24 00:40:37;;;;;;;190.83;80.33;;;;;;;0.61;58.09;99881.15;2095260;84;21405;-82
2022/03/24 00:43:38;;;;;;;183.07;76.37;;;;;;;0.60;58.04;99881.55;2090889;85;21058;-82
2022/03/24 00:46:38;;;;;;;160.23;72.90;;;;;;;0.58;58.15;99876.70;2091782;85;21226;-81
2022/03/24 00:49:39;;;;;;;173.50;73.23;;;;;;;0.55;58.11;99882.91;2092143;84;22052;-81
2022/03/24 00:52:45;;;;;;;189.57;73.27;;;;;;;0.55;58.17;99883.30;2093817;84;20987;-81
2022/03/24 00:55:46;;;;;;;165.93;67.13;;;;;;;0.50;58.21;99882.11;2091399;85;21081;-81
2022/03/24 00:58:46;;;;;;;150.13;63.23;;;;;;;0.40;58.11;99878.02;2092666;85;20994;-78
2022/03/24 01:01:46;;;;;;;212.67;67.30;;;;;;;0.35;58.41;99887.48;2093445;84;20947;-81
2022/03/24 01:04:47;;;;;;;138.23;60.13;;;;;;;0.34;58.54;99887.88;2094464;84;20955;-81
2022/03/24 01:07:49;;;;;;;139.47;61.90;;;;;;;0.36;58.57;99881.56;2094393;85;20963;-81
2022/03/24 01:10:49;;;;;;;146.67;59.77;;;;;;;0.29;58.51;99890.53;2091954;84;21007;-82
2022/03/24 01:13:51;;;;;;;175.10;63.93;;;;;;;0.23;58.63;99889.71;2094441;85;20975;-82
2022/03/24 01:16:52;;;;;;;149.37;59.63;;;;;;;0.22;58.79;99887.04;2092936;85;21002;-82
2022/03/24 01:19:52;;;;;;;140.40;60.27;;;;;;;0.22;58.84;99887.04;2093611;85;20990;-81
2022/03/24 01:22:53;;;;;;;125.33;56.30;;;;;;;0.22;58.79;99887.93;2093791;84;20988;-82
2022/03/24 01:25:54;;;;;;;125.27;53.10;;;;;;;0.19;58.66;99885.16;2095883;84;21038;-82
2022/03/24 01:28:56;;;;;;;119.60;52.77;;;;;;;0.17;58.64;99890.58;2107989;84;21011;-81
2022/03/24 01:31:56;;;;;;;118.90;51.20;;;;;;;0.15;58.71;99887.02;2119871;84;21421;-82
2022/03/24 01:34:57;;;;;;;117.47;51.73;;;;;;;0.13;58.72;99885.13;2116723;84;21073;-82
2022/03/24 01:37:57;;;;;;;122.67;53.17;;;;;;;0.10;58.79;99882.34;2107883;84;21335;-82
2022/03/24 01:40:58;;;;;;;115.37;51.47;;;;;;;0.08;58.81;99883.91;2119118;84;21350;-81
2022/03/24 01:43:59;;;;;;;112.77;50.37;;;;;;;0.06;58.79;99888.94;2117575;84;21063;-81
2022/03/24 01:47:00;;;;;;;136.63;54.63;;;;;;;0.08;58.93;99886.48;2118153;84;21330;-80
2022/03/24 01:50:00;;;;;;;136.43;54.23;;;;;;;0.01;58.94;99881.70;2119144;84;20928;-82
2022/03/24 01:53:00;;;;;;;126.57;52.77;;;;;;;-0.04;58.95;99882.24;2119756;84;20990;-81
2022/03/24 01:56:01;;;;;;;118.57;52.20;;;;;;;-0.10;58.97;99881.81;2118398;84;21034;-82
2022/03/24 01:59:02;;;;;;;106.37;47.33;;;;;;;-0.13;59.18;99883.28;2110928;83;21085;-81
2022/03/24 02:02:02;;;;;;;110.33;47.77;;;;;;;-0.18;59.36;99880.39;2116970;84;20987;-81
2022/03/24 02:05:03;;;;;;;96.30;45.27;;;;;;;-0.18;59.59;99889.38;2119829;84;20951;-81
2022/03/24 02:08:03;;;;;;;100.30;45.07;;;;;;;-0.19;59.70;99885.02;2112937;84;20947;-82
2022/03/24 02:11:04;;;;;;;97.50;44.90;;;;;;;-0.24;59.71;99886.37;2117782;84;20961;-82
2022/03/24 02:14:04;;;;;;;90.23;43.97;;;;;;;-0.28;59.83;99886.94;2119750;84;21029;-82
2022/03/24 02:17:05;;;;;;;94.53;43.10;;;;;;;-0.29;59.92;99884.27;2119414;84;20975;-82
2022/03/24 02:20:06;;;;;;;159.23;48.83;;;;;;;-0.30;59.95;99887.22;2118445;84;20911;-83
2022/03/24 02:23:06;;;;;;;105.67;44.40;;;;;;;-0.29;59.92;99888.12;2120325;84;20960;-83
2022/03/24 02:26:07;;;;;;;83.33;41.77;;;;;;;-0.31;59.99;99884.16;2115858;82;20991;-83
2022/03/24 02:29:08;;;;;;;116.33;43.03;;;;;;;-0.32;60.12;99884.94;2102306;84;21047;-82
2022/03/24 02:32:11;;;;;;;85.43;41.83;;;;;;;-0.32;60.25;99886.22;2100207;84;20975;-83
2022/03/24 02:35:12;;;;;;;91.80;41.40;;;;;;;-0.36;60.24;99880.38;2100588;83;21038;-83
2022/03/24 02:38:13;;;;;;;75.67;37.20;;;;;;;-0.38;60.37;99884.51;2099532;84;21362;-83
2022/03/24 02:41:14;;;;;;;81.77;37.73;;;;;;;-0.42;60.55;99882.50;2098720;83;21382;-82
2022/03/24 02:44:17;;;;;;;112.27;41.80;;;;;;;-0.43;60.66;99888.42;2105854;83;20958;-83
2022/03/24 02:47:17;;;;;;;106.17;39.73;;;;;;;-0.48;60.75;99886.81;2101554;84;21002;-82
2022/03/24 02:50:17;;;;;;;79.87;39.37;;;;;;;-0.52;60.96;99896.34;2101153;84;20951;-83
2022/03/24 02:53:19;;;;;;;245.63;50.40;;;;;;;-0.54;61.20;99891.89;2101628;84;20972;-82
2022/03/24 02:56:19;;;;;;;138.30;42.67;;;;;;;-0.60;61.33;99891.06;2101211;84;21090;-84
2022/03/24 02:59:20;;;;;;;109.03;41.97;;;;;;;-0.58;61.49;99889.89;2100237;84;20943;-83
2022/03/24 03:02:21;;;;;;;88.37;38.07;;;;;;;-0.57;61.40;99892.95;2092596;84;20934;-82
2022/03/24 03:05:22;;;;;;;87.03;38.73;;;;;;;-0.59;61.31;99897.08;2100397;83;20990;-82
2022/03/24 03:08:22;;;;;;;84.83;37.33;;;;;;;-0.63;61.44;99900.20;2097875;84;20950;-82
2022/03/24 03:11:23;;;;;;;88.20;36.70;;;;;;;-0.63;61.39;99898.92;2101638;83;20907;-81
2022/03/24 03:14:23;;;;;;;79.83;38.43;;;;;;;-0.62;61.46;99900.70;2098509;84;21394;-83
2022/03/24 03:17:24;;;;;;;109.40;40.10;;;;;;;-0.62;61.47;99904.16;2094509;84;20951;-81
2022/03/24 03:20:24;;;;;;;277.87;54.87;;;;;;;-0.63;61.54;99906.61;2100646;83;20932;-81
2022/03/24 03:23:25;;;;;;;204.83;47.70;;;;;;;-0.63;61.63;99902.77;2098750;84;21019;-83
2022/03/24 03:26:25;;;;;;;386.90;65.03;;;;;;;-0.62;61.58;99906.73;2099492;83;21002;-82
2022/03/24 03:29:26;;;;;;;331.77;60.30;;;;;;;-0.67;61.52;99908.95;2105375;84;20978;-78
2022/03/24 03:32:27;;;;;;;198.87;47.47;;;;;;;-0.66;61.86;99914.59;2119560;84;21011;-83
2022/03/24 03:35:29;;;;;;;114.30;39.30;;;;;;;-0.62;61.87;99913.53;2112052;83;21346;-83
2022/03/24 03:38:30;;;;;;;90.00;39.67;;;;;;;-0.64;61.93;99919.83;2121006;84;21019;-83
2022/03/24 03:41:30;;;;;;;81.93;38.97;;;;;;;-0.65;62.05;99921.50;2119935;84;20947;-83
2022/03/24 03:44:31;;;;;;;83.80;39.90;;;;;;;-0.66;62.20;99927.41;2119310;84;21374;-83
2022/03/24 03:47:32;;;;;;;79.17;38.30;;;;;;;-0.67;62.38;99926.91;2118585;84;20971;-81
2022/03/24 03:50:32;;;;;;;98.33;40.30;;;;;;;-0.69;62.54;99933.59;2119131;83;21030;-84
2022/03/24 03:53:33;;;;;;;1999.90;273.43;;;;;;;-0.76;62.65;99933.03;2126253;84;21473;-83
2022/03/24 03:56:34;;;;;;;287.00;53.17;;;;;;;-0.78;63.15;99932.92;2126222;84;21078;-83
2022/03/24 03:59:35;;;;;;;122.60;41.93;;;;;;;-0.76;63.10;99934.31;2125984;84;21345;-82
2022/03/24 04:02:35;;;;;;;107.63;40.70;;;;;;;-0.76;63.01;99944.57;2123235;84;21370;-83
2022/03/24 04:05:36;;;;;;;166.63;46.07;;;;;;;-0.82;63.16;99941.56;2111089;83;20935;-83
2022/03/24 04:08:36;;;;;;;101.83;41.23;;;;;;;-0.84;63.29;99941.45;2120598;84;20951;-82
2022/03/24 04:11:37;;;;;;;97.40;41.17;;;;;;;-0.84;63.35;99944.39;2119855;84;21010;-82
2022/03/24 04:14:38;;;;;;;102.03;41.47;;;;;;;-0.88;63.42;99947.09;2120840;83;21013;-82
2022/03/24 04:17:38;;;;;;;84.13;38.50;;;;;;;-0.90;63.54;99947.75;2111650;83;20911;-82
2022/03/24 04:20:39;;;;;;;96.97;42.70;;;;;;;-0.95;63.65;99947.41;2119787;84;21330;-82
2022/03/24 04:23:39;;;;;;;94.87;42.33;;;;;;;-1.00;63.80;99946.19;2120225;84;21010;-82
2022/03/24 04:26:40;;;;;;;84.30;37.43;;;;;;;-1.02;63.79;99951.58;2110670;83;21014;-83
2022/03/24 04:29:41;;;;;;;80.07;38.30;;;;;;;-1.04;64.03;99955.31;2124779;83;21065;-81
2022/03/24 04:32:41;;;;;;;98.87;39.03;;;;;;;-1.02;64.07;99960.55;2119758;83;21013;-83
2022/03/24 04:35:42;;;;;;;81.83;37.40;;;;;;;-1.01;64.20;99959.39;2120445;84;21057;-82
2022/03/24 04:38:42;;;;;;;74.47;35.70;;;;;;;-1.01;64.12;99950.80;2125693;84;21330;-82
2022/03/24 04:41:45;;;;;;;424.27;71.40;;;;;;;-1.04;64.14;99954.42;2125898;84;21344;-84
2022/03/24 04:44:46;;;;;;;103.47;41.87;;;;;;;-1.11;64.31;99962.04;2124969;84;21042;-82
2022/03/24 04:47:46;;;;;;;105.80;41.13;;;;;;;-1.12;64.50;99959.36;2109080;84;21017;-82
2022/03/24 04:50:47;;;;;;;90.97;41.33;;;;;;;-1.12;64.42;99967.94;2123478;84;21025;-84
2022/03/24 04:53:47;;;;;;;74.97;37.40;;;;;;;-1.08;64.44;99967.78;2114623;84;20989;-83
2022/03/24 04:56:48;;;;;;;120.37;40.10;;;;;;;-1.08;64.35;99966.50;2115757;84;21188;-80
2022/03/24 04:59:48;;;;;;;151.30;43.53;;;;;;;-1.08;64.58;99965.22;2118455;84;21306;-79
2022/03/24 05:02:49;;;;;;;87.47;37.80;;;;;;;-1.05;64.49;99970.58;2123591;84;21002;-83
2022/03/24 05:05:49;;;;;;;75.00;36.53;;;;;;;-0.98;64.53;99967.69;2113252;84;21045;-82
2022/03/24 05:08:50;;;;;;;89.17;40.37;;;;;;;-0.96;64.35;99963.19;2111160;84;21481;-82
2022/03/24 05:11:51;;;;;;;82.83;40.40;;;;;;;-0.90;64.45;99965.31;2123373;84;21001;-82
2022/03/24 05:14:53;;;;;;;75.87;38.57;;;;;;;-0.80;64.36;99969.48;2122308;84;21177;-83
2022/03/24 05:17:53;;;;;;;96.47;40.67;;;;;;;-0.73;64.27;99968.77;2112894;84;21006;-83
2022/03/24 05:20:54;;;;;;;83.43;38.43;;;;;;;-0.64;64.24;99968.55;2114103;84;20967;-83
2022/03/24 05:23:54;;;;;;;84.20;39.50;;;;;;;-0.52;63.98;99973.68;2110657;84;21033;-82
2022/03/24 05:26:55;;;;;;;76.93;37.87;;;;;;;-0.39;63.71;99972.51;2121194;84;21064;-82
2022/03/24 05:29:55;;;;;;;78.47;38.47;;;;;;;-0.27;63.46;99977.24;2108770;84;21065;-82
2022/03/24 05:32:56;;;;;;;94.20;41.97;;;;;;;-0.16;63.32;99982.75;2116938;84;21073;-82
2022/03/24 05:35:57;;;;;;;78.73;39.17;;;;;;;-0.01;63.33;99976.15;2116621;84;21002;-82
2022/03/24 05:38:57;;;;;;;91.37;44.77;;;;;;;0.22;63.21;99979.48;2108365;84;21451;-82
2022/03/24 05:41:58;;;;;;;116.70;43.77;;;;;;;0.50;63.05;99981.91;2113846;84;20994;-83
2022/03/24 05:44:59;;;;;;;102.73;45.17;;;;;;;0.74;62.74;99982.70;2109290;83;20978;-82
2022/03/24 05:47:59;;;;;;;96.37;42.87;;;;;;;0.98;62.42;99984.78;2110700;84;21002;-82
2022/03/24 05:51:03;;;;;;;180.33;50.50;;;;;;;1.19;62.83;99991.36;2114267;84;21368;-83
2022/03/24 05:54:03;;;;;;;570.67;81.10;;;;;;;1.37;62.25;99993.37;2114695;83;21498;-80
2022/03/24 05:57:04;;;;;;;139.90;46.33;;;;;;;1.56;61.75;99994.68;2106215;84;21086;-83
2022/03/24 06:00:06;;;;;;;165.10;48.00;;;;;;;1.68;61.24;99994.59;2111068;83;20958;-82
2022/03/24 06:03:07;;;;;;;88.47;44.47;;;;;;;1.98;60.89;99990.95;2109942;84;21065;-84
2022/03/24 06:06:09;;;;;;;91.13;44.67;;;;;;;2.31;60.24;99996.05;2109332;83;21428;-84
2022/03/24 06:09:10;;;;;;;87.27;44.50;;;;;;;2.58;59.61;99992.59;2108176;83;21066;-83
2022/03/24 06:15:14;;;;;;;94.43;45.03;;;;;;;2.97;58.40;99994.15;2092888;84;21018;-83
2022/03/24 06:18:15;;;;;;;81.77;44.57;;;;;;;3.13;57.81;99998.13;2116497;84;21002;-83
2022/03/24 06:21:16;;;;;;;83.73;45.53;;;;;;;3.34;57.67;99994.63;2113409;84;21042;-85
2022/03/24 06:24:17;;;;;;;88.50;43.17;;;;;;;3.58;57.20;100003.34;2103952;84;21383;-82
2022/03/24 06:27:18;;;;;;;84.13;43.80;;;;;;;3.77;56.61;100003.19;2116690;84;21098;-82
2022/03/24 06:30:19;;;;;;;89.63;43.80;;;;;;;3.97;56.37;100012.06;2114107;84;21046;-84
2022/03/24 06:33:20;;;;;;;90.20;44.00;;;;;;;4.17;55.82;100011.89;2116270;83;21058;-84
2022/03/24 06:36:21;;;;;;;75.20;42.63;;;;;;;4.37;55.46;100006.16;2112348;83;21010;-83
2022/03/24 06:39:22;;;;;;;75.83;41.80;;;;;;;4.55;55.15;100008.84;2113912;84;21689;-83
2022/03/24 06:42:23;;;;;;;77.33;42.43;;;;;;;4.82;54.82;100022.36;2112727;84;21046;-83
2022/03/24 06:45:23;;;;;;;72.30;39.37;;;;;;;5.00;54.25;100024.63;2118064;84;21296;-85
2022/03/24 06:48:24;;;;;;;80.67;44.20;;;;;;;5.13;53.86;100024.45;2120898;84;20994;-82
2022/03/24 06:51:24;;;;;;;80.00;42.73;;;;;;;5.28;53.36;100020.91;2109229;83;21061;-81
2022/03/24 06:54:25;;;;;;;69.87;40.77;;;;;;;5.39;53.25;100022.34;2116565;84;21068;-83
2022/03/24 06:57:26;;;;;;;87.30;39.50;;;;;;;5.59;52.98;100018.17;2120076;84;20987;-85
2022/03/24 07:00:26;;;;;;;66.13;38.60;;;;;;;5.80;52.62;100022.23;2110244;83;21472;-84
2022/03/24 07:03:27;;;;;;;70.83;39.30;;;;;;;5.99;51.75;100024.54;2116698;84;20994;-84
2022/03/24 07:06:27;;;;;;;58.70;36.00;;;;;;;6.18;51.65;100033.23;2109782;83;21005;-86
2022/03/24 07:09:28;;;;;;;57.83;36.27;;;;;;;6.41;50.90;100022.66;2118965;84;21057;-86
2022/03/24 07:12:28;;;;;;;55.73;35.40;;;;;;;6.60;50.30;100030.06;2110059;84;21002;-85
2022/03/24 07:15:29;;;;;;;59.87;35.47;;;;;;;6.73;49.79;100030.22;2110021;83;21021;-85
2022/03/24 07:18:30;;;;;;;59.97;35.67;;;;;;;6.88;49.25;100027.44;2095800;84;20963;-86
2022/03/24 07:24:33;;;;;;;51.27;33.63;;;;;;;7.11;48.75;100029.38;2084665;84;21013;-85
2022/03/24 07:30:44;;;;;;;45.70;30.63;;;;;;;7.49;47.92;100017.17;2054210;85;21100;-86
2022/03/24 07:33:44;;;;;;;48.50;30.63;;;;;;;7.78;46.42;100024.48;2116073;84;21062;-82
2022/03/24 07:36:45;;;;;;;45.80;28.47;;;;;;;7.78;46.42;100024.48;2123490;84;21318;-84
2022/03/24 07:39:45;;;;;;;45.70;29.80;;;;;;;7.95;46.57;100020.00;2116318;84;21037;-85
2022/03/24 07:42:46;;;;;;;44.33;28.70;;;;;;;8.14;46.27;100019.03;2116653;84;21001;-86
2022/03/24 07:45:47;;;;;;;40.87;28.47;;;;;;;8.35;45.16;100029.44;2124053;84;21003;-85
2022/03/24 07:48:48;;;;;;;40.07;28.03;;;;;;;8.49;45.29;100028.26;2117107;84;21063;-85
2022/03/24 07:51:50;;;;;;;42.30;25.73;;;;;;;8.76;44.71;100021.53;2124288;84;21108;-86
2022/03/24 07:54:50;;;;;;;41.70;25.70;;;;;;;8.97;44.30;100023.16;2119933;84;21038;-85
2022/03/24 07:57:51;;;;;;;35.20;24.00;;;;;;;9.17;43.77;100023.47;2120215;84;21029;-84
2022/03/24 08:00:51;;;;;;;32.27;23.27;;;;;;;9.29;43.23;100017.81;2115139;84;20974;-82
2022/03/24 08:03:53;;;;;;;37.60;23.77;;;;;;;9.46;42.87;100015.38;2115139;84;20998;-84
2022/03/24 08:06:54;;;;;;;33.17;23.67;;;;;;;9.68;42.51;100017.92;2119789;84;21981;-85
2022/03/24 08:09:54;;;;;;;32.17;22.23;;;;;;;9.81;41.80;100016.20;2111561;84;21068;-84
2022/03/24 08:12:55;;;;;;;55.60;20.83;;;;;;;9.97;41.76;100022.80;2123376;84;21359;-85
2022/03/24 08:15:56;;;;;;;27.03;18.90;;;;;;;10.25;40.62;100019.81;2115974;84;21361;-84
2022/03/24 08:18:57;;;;;;;27.87;18.43;;;;;;;10.40;39.76;100025.52;2109241;84;21086;-82
2022/03/24 08:21:57;;;;;;;27.77;17.00;;;;;;;10.41;38.89;100022.98;2108731;84;21010;-84
2022/03/24 08:24:58;;;;;;;22.90;17.00;;;;;;;10.35;38.54;100030.59;2115640;84;21259;-85
2022/03/24 08:27:58;;;;;;;27.33;16.27;;;;;;;10.42;38.53;100025.17;2123102;84;20994;-83
2022/03/24 08:30:59;;;;;;;20.97;13.93;;;;;;;10.54;38.19;100019.03;2108153;84;21050;-82
2022/03/24 08:34:00;;;;;;;27.03;14.63;;;;;;;10.68;37.77;100021.64;2111244;84;21712;-84
2022/03/24 08:37:00;;;;;;;21.63;15.83;;;;;;;10.89;37.08;100021.38;2094029;84;21018;-84
2022/03/24 08:40:01;;;;;;;24.03;14.03;;;;;;;11.02;37.32;100026.54;2102282;84;21088;-85
2022/03/24 08:43:03;;;;;;;16.53;13.10;;;;;;;11.20;35.49;100025.75;2107958;84;21002;-84
2022/03/24 08:46:04;;;;;;;17.17;11.97;;;;;;;11.27;36.45;100021.20;2118291;83;21039;-85
2022/03/24 08:49:04;;;;;;;115.32;18.55;;;;;;;11.30;35.07;100023.01;2109564;84;20923;-82
2022/03/24 08:52:05;;;;;;;14.58;12.07;;;;;;;11.22;35.27;100017.53;2110207;84;21017;-84
2022/03/24 08:55:05;;;;;;;15.85;11.90;;;;;;;11.24;34.92;100019.77;2113595;83;21046;-84
2022/03/24 08:58:06;;;;;;;16.30;10.75;;;;;;;11.43;34.18;100017.27;2100331;84;21433;-85
2022/03/24 09:01:06;;;;;;;24.85;15.18;;;;;;;11.67;34.93;100015.30;2076347;85;21006;-84
2022/03/24 09:04:07;;;;;;;21.05;13.55;;;;;;;11.79;34.96;100012.15;2102624;84;20978;-83
2022/03/24 09:07:08;;;;;;;40.58;12.88;;;;;;;11.85;35.31;100011.00;2118719;84;20985;-83
2022/03/24 09:10:10;;;;;;;20.00;13.65;;;;;;;11.92;34.68;100015.96;2116898;84;21092;-83
2022/03/24 09:13:11;;;;;;;16.55;10.65;;;;;;;11.87;34.58;100013.65;2106271;84;20986;-85
2022/03/24 09:16:12;;;;;;;17.23;12.13;;;;;;;12.02;34.10;100014.91;2094905;84;21041;-86
2022/03/24 09:19:14;;;;;;;23.75;11.40;;;;;;;12.07;34.41;100011.10;2077102;85;21142;-83
2022/03/24 09:22:15;;;;;;;14.33;10.35;;;;;;;12.20;34.19;100009.70;2089636;84;20990;-84
2022/03/24 09:25:15;;;;;;;16.50;11.00;;;;;;;12.32;33.78;100001.70;2089231;85;21018;-83
2022/03/24 09:28:16;;;;;;;16.60;10.80;;;;;;;12.36;32.87;100008.78;2089697;85;20997;-85
2022/03/24 09:31:16;;;;;;;18.07;11.65;;;;;;;12.33;32.82;100007.41;2109558;84;21034;-84
2022/03/24 09:34:20;;;;;;;19.98;11.05;;;;;;;12.37;32.07;100011.86;2117908;84;21365;-85
2022/03/24 09:37:22;;;;;;;23.50;9.30;;;;;;;12.40;32.48;100002.77;2117219;84;21045;-85
2022/03/24 09:40:23;;;;;;;18.75;10.38;;;;;;;12.51;31.37;100001.70;2093440;84;21078;-84
2022/03/24 09:43:23;;;;;;;36.15;11.68;;;;;;;12.52;31.11;100011.33;2101902;84;21049;-84
2022/03/24 09:46:24;;;;;;;16.17;8.98;;;;;;;12.47;31.57;100005.52;2112291;84;21034;-82
2022/03/24 09:49:24;;;;;;;30.90;10.50;;;;;;;12.53;31.53;100004.35;2111327;84;21010;-81
2022/03/24 09:52:25;;;;;;;17.90;8.50;;;;;;;12.66;31.48;100010.32;2117443;83;21078;-83
2022/03/24 09:55:26;;;;;;;12.40;7.83;;;;;;;12.81;30.42;100005.84;2114487;84;21038;-80
2022/03/24 09:58:26;;;;;;;27.27;9.08;;;;;;;12.77;29.73;100011.44;2105697;84;20986;-80
2022/03/24 10:01:27;;;;;;;29.90;10.45;;;;;;;12.73;30.79;100008.30;2093235;84;20984;-79
2022/03/24 10:04:28;;;;;;;20.75;7.92;;;;;;;12.92;30.18;100017.42;2088158;84;21031;-80
2022/03/24 10:07:32;;;;;;;17.70;7.90;;;;;;;12.91;29.29;100014.34;2088388;84;21014;-81
2022/03/24 10:10:34;;;;;;;15.13;7.15;;;;;;;12.91;29.99;100015.66;2089100;85;21034;-81
2022/03/24 10:13:35;;;;;;;12.35;7.75;;;;;;;12.91;30.08;100011.30;2089176;85;21038;-80
2022/03/24 10:16:38;;;;;;;11.65;7.47;;;;;;;12.99;30.29;100001.86;2088240;85;20955;-81
2022/03/24 10:19:37;;;;;;;12.10;8.25;;;;;;;13.11;30.70;99992.08;2089629;84;21058;-79
2022/03/24 10:22:38;;;;;;;15.93;10.18;;;;;;;13.29;30.47;99994.21;2094256;84;20975;-80
2022/03/24 10:25:39;;;;;;;12.18;7.67;;;;;;;13.23;30.18;100000.22;2106864;84;20982;-81
2022/03/24 10:28:39;;;;;;;13.20;8.70;;;;;;;13.34;30.61;99984.27;2101795;84;20967;-81
2022/03/24 10:31:41;;;;;;;13.53;8.38;;;;;;;13.47;30.77;99989.31;2093189;84;21049;-80
2022/03/24 10:34:42;;;;;;;55.05;11.50;;;;;;;13.64;30.35;99988.30;2093435;84;21045;-81
2022/03/24 10:37:42;;;;;;;11.65;8.15;;;;;;;13.67;30.14;99988.36;2095204;84;20998;-84
2022/03/24 10:40:43;;;;;;;19.98;8.50;;;;;;;13.76;30.09;99985.00;2102890;84;21014;-82
2022/03/24 10:43:43;;;;;;;35.65;8.45;;;;;;;13.81;29.88;99984.66;2110647;84;21405;-82
2022/03/24 10:46:44;;;;;;;14.50;7.70;;;;;;;13.90;29.64;99979.16;2116747;84;20946;-83
2022/03/24 10:49:45;;;;;;;8.18;5.97;;;;;;;13.88;29.00;99983.50;2093570;84;20971;-81
2022/03/24 10:52:45;;;;;;;11.97;6.90;;;;;;;13.92;28.88;99972.20;2101954;84;21026;-82
2022/03/24 10:55:47;;;;;;;15.38;8.03;;;;;;;14.07;29.04;99967.62;2102880;84;21409;-78
2022/03/24 10:58:47;;;;;;;10.95;7.22;;;;;;;14.09;29.24;99966.33;2089283;85;21042;-80
2022/03/24 11:01:49;;;;;;;34.20;11.03;;;;;;;14.22;28.90;99961.72;2088582;85;21002;-83
2022/03/24 11:04:50;;;;;;;13.55;8.35;;;;;;;14.23;28.39;99957.80;2092548;84;21030;-84
2022/03/24 11:10:53;;;;;;;12.82;7.85;;;;;;;14.37;28.27;99954.06;2077746;85;21812;-83
2022/03/24 11:13:53;;;;;;;11.80;8.08;;;;;;;14.29;28.36;99962.26;2112318;84;21045;-84
2022/03/24 11:16:54;;;;;;;10.43;7.45;;;;;;;14.11;28.86;99959.36;2118619;84;21053;-84
2022/03/24 11:19:55;;;;;;;9.80;7.35;;;;;;;14.21;28.89;99949.45;2118810;84;21878;-84
2022/03/24 11:22:56;;;;;;;12.23;6.72;;;;;;;14.21;28.89;99949.45;2116625;84;21036;-83
2022/03/24 11:25:57;;;;;;;16.70;7.35;;;;;;;14.34;28.96;99948.77;2116579;83;21038;-85
2022/03/24 11:28:57;;;;;;;12.30;7.10;;;;;;;14.27;28.21;99956.11;2113956;84;20971;-83
2022/03/24 11:31:58;;;;;;;19.95;7.42;;;;;;;14.23;29.04;99938.53;2115515;84;21066;-83
2022/03/24 11:34:58;;;;;;;11.10;6.67;;;;;;;14.36;28.90;99937.84;2120231;84;21037;-84
2022/03/24 11:37:59;;;;;;;12.98;6.70;;;;;;;14.25;28.89;99928.51;2113582;84;20975;-81
2022/03/24 11:40:59;;;;;;;22.00;7.35;;;;;;;14.25;28.89;99928.51;2112679;84;21068;-83
2022/03/24 11:44:00;;;;;;;11.95;6.50;;;;;;;14.22;28.50;99936.77;2120367;84;21524;-82
2022/03/24 11:47:01;;;;;;;12.55;7.25;;;;;;;14.13;28.95;99924.83;2124526;84;20971;-84
2022/03/24 11:50:02;;;;;;;27.32;7.15;;;;;;;14.21;29.00;99922.76;2123582;84;20978;-83
2022/03/24 11:53:03;;;;;;;8.90;6.00;;;;;;;14.27;29.17;99920.22;2123088;84;21134;-83
2022/03/24 11:56:04;;;;;;;12.43;5.83;;;;;;;14.38;29.06;99917.73;2115681;84;21076;-83
2022/03/24 11:59:06;;;;;;;9.10;6.20;;;;;;;14.48;29.03;99915.72;2119538;84;20998;-83
2022/03/24 12:02:06;;;;;;;33.60;6.90;;;;;;;14.60;28.26;99926.39;2108844;84;21088;-83
2022/03/24 12:05:10;;;;;;;13.32;5.87;;;;;;;14.63;28.42;99926.86;2120043;84;21033;-81
2022/03/24 12:08:10;;;;;;;16.75;6.33;;;;;;;14.57;28.83;99917.58;2115419;84;21380;-82
2022/03/24 12:11:11;;;;;;;11.10;6.42;;;;;;;14.55;28.80;99900.48;2122894;84;21046;-80
2022/03/24 12:14:12;;;;;;;17.45;6.30;;;;;;;14.57;28.67;99913.21;2119835;84;21034;-83
2022/03/24 12:17:13;;;;;;;10.48;6.40;;;;;;;14.55;28.48;99918.88;2120564;84;21042;-79
2022/03/24 12:20:13;;;;;;;16.45;10.03;;;;;;;14.44;28.75;99915.23;2112331;84;20989;-81
2022/03/24 12:23:15;;;;;;;16.97;6.55;;;;;;;14.51;28.69;99896.05;2101917;85;20998;-83
2022/03/24 12:26:15;;;;;;;8.45;6.15;;;;;;;14.51;28.69;99896.05;2113544;84;21049;-83
2022/03/24 12:29:16;;;;;;;13.10;6.22;;;;;;;14.52;29.02;99904.81;2108745;84;20947;-83
2022/03/24 12:32:17;;;;;;;13.55;5.60;;;;;;;14.52;29.29;99902.19;2106157;84;21025;-79
2022/03/24 12:35:18;;;;;;;18.48;6.35;;;;;;;14.59;28.89;99899.66;2088759;85;21014;-81
2022/03/24 12:38:18;;;;;;;11.00;6.17;;;;;;;14.62;29.02;99909.33;2090963;85;21018;-80
2022/03/24 12:41:20;;;;;;;191.05;19.37;;;;;;;14.57;29.12;99897.45;2089083;84;21034;-83
2022/03/24 12:44:20;;;;;;;75.28;11.40;;;;;;;14.60;29.35;99890.03;2089790;85;21518;-83
2022/03/24 12:47:21;;;;;;;9.33;5.92;;;;;;;14.77;29.34;99894.20;2091191;85;21035;-82
2022/03/24 12:50:21;;;;;;;7.90;5.65;;;;;;;14.82;28.87;99883.31;2091572;85;21374;-82
2022/03/24 12:53:23;;;;;;;44.03;8.53;;;;;;;14.79;28.95;99888.10;2092685;84;21882;-82
2022/03/24 12:56:33;;;;;;;11.63;6.28;;;;;;;14.69;29.10;99890.14;2093222;84;21065;-82
2022/03/24 12:59:36;;;;;;;11.80;6.17;;;;;;;14.69;29.18;99884.89;2089621;85;21450;-83
2022/03/24 13:02:37;;;;;;;13.50;6.45;;;;;;;14.72;29.54;99884.92;2089279;84;20995;-80
2022/03/24 13:05:39;;;;;;;46.10;7.35;;;;;;;14.80;29.01;99888.98;2091159;84;21069;-82
2022/03/24 13:08:39;;;;;;;11.78;6.47;;;;;;;14.80;29.10;99885.05;2088683;85;20970;-80
2022/03/24 13:11:40;;;;;;;15.55;6.45;;;;;;;14.72;28.95;99889.30;2088806;85;21030;-83
2022/03/24 13:14:41;;;;;;;16.73;6.55;;;;;;;14.62;29.18;99876.05;2091005;84;21420;-80
2022/03/24 13:17:42;;;;;;;24.60;7.20;;;;;;;14.60;29.32;99883.03;2088254;85;20975;-80
2022/03/24 13:20:43;;;;;;;25.70;6.50;;;;;;;14.57;29.37;99884.31;2090245;85;21018;-82
2022/03/24 13:23:43;;;;;;;51.63;7.95;;;;;;;14.49;28.93;99881.14;2089369;84;20990;-83
2022/03/24 13:26:44;;;;;;;225.25;17.25;;;;;;;14.46;29.13;99871.91;2088995;85;21382;-80
2022/03/24 13:29:44;;;;;;;16.52;5.85;;;;;;;14.53;29.27;99874.62;2088288;85;21019;-79
2022/03/24 13:32:45;;;;;;;13.60;6.65;;;;;;;14.52;29.19;99879.43;2106337;84;21069;-81
2022/03/24 13:35:46;;;;;;;9.63;6.12;;;;;;;14.48;29.29;99885.51;2115621;84;21316;-82
2022/03/24 13:38:46;;;;;;;9.80;5.87;;;;;;;14.36;29.28;99872.19;2111776;83;21002;-84
2022/03/24 13:41:47;;;;;;;12.93;6.03;;;;;;;14.28;29.03;99865.95;2115427;83;21070;-82
2022/03/24 13:44:47;;;;;;;14.68;5.87;;;;;;;14.24;29.37;99854.95;2117952;84;21002;-82
2022/03/24 13:47:48;;;;;;;10.85;5.95;;;;;;;14.34;29.07;99855.52;2116341;84;21000;-80
2022/03/24 13:50:48;;;;;;;12.70;6.42;;;;;;;14.31;28.85;99859.42;2108319;84;20951;-80
2022/03/24 13:53:49;;;;;;;21.90;7.00;;;;;;;14.27;28.57;99851.94;2112259;84;20982;-81
2022/03/24 13:56:51;;;;;;;22.30;7.50;;;;;;;14.27;29.15;99853.69;2114165;84;21055;-80
2022/03/24 13:59:51;;;;;;;8.50;5.80;;;;;;;14.31;29.08;99854.17;2114383;84;21690;-81
2022/03/24 14:02:52;;;;;;;15.72;7.72;;;;;;;14.28;29.29;99852.82;2122024;83;21006;-78